Weather at San Carlos Airport

Public forecast

Using degrees Fahrenheit for public forecast. Weather courtesy of forecast.io.

Current aviation weather report (METAR) for San Carlos Airport

2024/05/28 00:47 (retrieved 25 minutes ago)

KSQL 280047Z 28015KT 10SM CLR 16/08 A3002

Closest aviation forecast (TAF) to San Carlos Airport

Closest forecast is Travis Air Force Base, 47.5 nm (88.1 km) NNE.

2024/05/27 19:38 (retrieved 6 hours ago)

TAF KSUU 271900Z 2719/2901 23012G18KT 9999 SKC QNH2991INS BECMG 2719/2720 23015G25KT 9999 SKC QNH2990INS BECMG 2814/2815 23010G15KT 9999 SKC QNH3000INS TX27/2723Z TN10/2813Z